createdAt,value
2023-03-29T00:00:08.965Z,83.23
2023-03-29T00:05:15.089Z,82.24
2023-03-29T00:10:16.816Z,82.37
2023-03-29T00:15:19.175Z,82.73
2023-03-29T00:20:20.815Z,82.98
2023-03-29T00:25:22.514Z,82.96
2023-03-29T00:30:24.244Z,82.51
2023-03-29T00:35:26.202Z,82.25
2023-03-29T00:40:28.009Z,82.26
2023-03-29T00:45:33.973Z,82.91
2023-03-29T00:50:42.771Z,82.73
2023-03-29T00:56:06.292Z,82.56
2023-03-29T01:01:11.596Z,82.92
2023-03-29T01:06:15.192Z,81.60
2023-03-29T01:11:24.416Z,81.79
2023-03-29T01:16:28.624Z,82.38
2023-03-29T01:21:44.649Z,82.07
2023-03-29T01:27:05.359Z,83.22
2023-03-29T01:32:16.969Z,83.30
2023-03-29T01:37:25.099Z,83.59
2023-03-29T01:42:48.321Z,84.10
2023-03-29T01:47:53.199Z,83.85
2023-03-29T01:52:59.756Z,84.23
2023-03-29T01:58:03.078Z,84.34
2023-03-29T02:03:08.125Z,84.08
2023-03-29T02:08:12.251Z,83.53
2023-03-29T02:13:14.251Z,83.67
2023-03-29T02:18:16.545Z,82.88
2023-03-29T02:23:49.144Z,82.39
2023-03-29T02:28:51.698Z,82.41
2023-03-29T02:33:58.809Z,82.05
2023-03-29T02:39:04.871Z,81.28
2023-03-29T02:44:08.526Z,81.09
2023-03-29T02:49:11.177Z,81.03
2023-03-29T02:54:15.702Z,81.47
2023-03-29T03:04:21.121Z,81.96
2023-03-29T03:09:24.122Z,81.97
2023-03-29T03:14:28.299Z,81.58
2023-03-29T03:19:32.020Z,81.66
2023-03-29T03:24:34.526Z,81.74
2023-03-29T03:29:38.521Z,81.24
2023-03-29T03:34:58.981Z,81.55
2023-03-29T03:40:01.470Z,81.67
2023-03-29T03:45:05.109Z,81.23
2023-03-29T03:50:25.521Z,82.03
2023-03-29T03:55:29.992Z,81.57
2023-03-29T04:00:48.790Z,81.75
2023-03-29T04:06:04.939Z,81.43
2023-03-29T04:11:26.536Z,81.61
2023-03-29T04:16:28.623Z,81.78
2023-03-29T04:21:35.843Z,81.63
2023-03-29T04:26:38.144Z,81.82
2023-03-29T04:31:54.547Z,81.15
2023-03-29T04:37:22.045Z,80.96
2023-03-29T04:42:27.500Z,80.52
2023-03-29T04:47:29.956Z,80.44
2023-03-29T04:52:37.100Z,79.95
2023-03-29T04:57:41.292Z,79.49
2023-03-29T05:02:53.467Z,79.76
2023-03-29T05:07:55.856Z,78.89
2023-03-29T05:13:04.354Z,78.88
2023-03-29T05:18:07.196Z,78.81
2023-03-29T05:23:09.709Z,78.27
2023-03-29T05:28:30.053Z,77.33
2023-03-29T05:33:32.348Z,77.30
2023-03-29T05:38:35.810Z,76.53
2023-03-29T05:43:38.321Z,76.77
2023-03-29T05:48:40.157Z,76.39
2023-03-29T05:53:42.145Z,76.42
2023-03-29T05:58:43.910Z,76.51
2023-03-29T06:03:49.239Z,76.10
2023-03-29T06:08:53.392Z,75.49
2023-03-29T06:14:04.599Z,75.64
2023-03-29T06:19:07.492Z,75.07
2023-03-29T06:24:10.594Z,74.22
2023-03-29T06:29:19.225Z,74.29
2023-03-29T06:34:22.482Z,74.34
2023-03-29T06:40:07.281Z,73.94
2023-03-29T06:45:22.458Z,73.75
2023-03-29T06:50:26.191Z,74.04
2023-03-29T06:55:36.304Z,73.64
2023-03-29T07:01:05.038Z,73.01
2023-03-29T07:06:20.457Z,72.07
2023-03-29T07:11:23.237Z,72.08
2023-03-29T07:16:32.761Z,70.75
2023-03-29T07:21:44.129Z,70.32
2023-03-29T07:27:00.264Z,70.07
2023-03-29T07:32:05.660Z,70.32
2023-03-29T07:37:16.209Z,70.09
2023-03-29T07:42:19.964Z,70.34
2023-03-29T07:47:23.147Z,70.14
2023-03-29T07:52:28.033Z,69.91
2023-03-29T07:57:29.812Z,69.75
2023-03-29T08:02:34.412Z,69.57
2023-03-29T08:07:37.823Z,70.14
2023-03-29T08:12:59.442Z,71.89
2023-03-29T08:18:08.608Z,72.64
2023-03-29T08:23:10.749Z,71.98
2023-03-29T08:28:34.873Z,72.19
2023-03-29T08:33:37.097Z,71.70
2023-03-29T08:38:57.462Z,72.31
2023-03-29T08:44:20.449Z,73.23
2023-03-29T08:49:31.870Z,73.68
2023-03-29T08:54:46.587Z,73.52
2023-03-29T09:00:06.148Z,73.30
2023-03-29T09:05:23.076Z,73.27
2023-03-29T09:10:40.869Z,73.24
2023-03-29T09:15:44.659Z,72.05
2023-03-29T09:21:04.821Z,72.22
2023-03-29T09:26:29.505Z,71.62
2023-03-29T09:31:46.077Z,71.81
2023-03-29T09:36:52.806Z,70.55
2023-03-29T09:42:09.009Z,69.98
2023-03-29T09:47:34.306Z,68.03
2023-03-29T09:52:40.232Z,68.40
2023-03-29T09:57:51.946Z,68.63
2023-03-29T10:02:57.846Z,69.38
2023-03-29T10:08:27.967Z,68.59
2023-03-29T10:13:37.171Z,67.45
2023-03-29T10:18:43.180Z,67.02
2023-03-29T10:23:44.967Z,66.81
2023-03-29T10:28:46.767Z,67.07
2023-03-29T10:33:53.925Z,66.78
2023-03-29T10:38:58.210Z,66.36
2023-03-29T10:44:00.920Z,66.48
2023-03-29T10:49:10.320Z,65.95
2023-03-29T10:54:14.153Z,66.48
2023-03-29T10:59:24.566Z,65.03
2023-03-29T11:04:38.178Z,64.77
2023-03-29T11:09:47.811Z,63.98
2023-03-29T11:15:12.786Z,63.57
2023-03-29T11:20:23.401Z,62.52
2023-03-29T11:25:38.342Z,61.90
2023-03-29T11:31:02.141Z,60.41
2023-03-29T11:36:50.502Z,62.28
2023-03-29T11:42:02.394Z,63.06
2023-03-29T11:47:10.123Z,62.23
2023-03-29T11:52:34.105Z,63.57
2023-03-29T11:57:56.936Z,63.23
2023-03-29T12:03:13.888Z,62.96
2023-03-29T12:08:23.565Z,62.29
2023-03-29T12:13:57.510Z,62.18
2023-03-29T12:19:05.266Z,61.56
2023-03-29T12:24:06.933Z,61.59
2023-03-29T12:29:34.281Z,61.09
2023-03-29T12:34:54.787Z,61.56
2023-03-29T12:40:23.378Z,61.25
2023-03-29T12:45:48.730Z,61.04
2023-03-29T12:50:52.819Z,62.42
2023-03-29T12:56:19.784Z,61.33
2023-03-29T13:01:34.957Z,61.13
2023-03-29T13:06:50.134Z,61.88
2023-03-29T13:11:54.012Z,62.41
2023-03-29T13:17:15.580Z,61.55
2023-03-29T13:22:39.082Z,62.51
2023-03-29T13:28:01.761Z,62.24
2023-03-29T13:33:24.530Z,62.06
2023-03-29T13:38:28.044Z,62.33
2023-03-29T13:43:32.877Z,62.32
2023-03-29T13:48:37.691Z,62.53
2023-03-29T13:54:24.105Z,62.71
2023-03-29T13:59:33.823Z,61.56
2023-03-29T14:04:41.980Z,62.21
2023-03-29T14:09:46.145Z,62.99
2023-03-29T14:14:58.726Z,63.00
2023-03-29T14:20:01.623Z,63.98
2023-03-29T14:25:12.330Z,63.29
2023-03-29T14:30:27.469Z,62.23
2023-03-29T14:35:32.326Z,62.13
2023-03-29T14:40:34.841Z,62.11
2023-03-29T14:45:37.448Z,62.14
2023-03-29T14:50:39.407Z,62.00
2023-03-29T14:55:41.758Z,61.36
2023-03-29T15:00:43.461Z,61.25
2023-03-29T15:05:51.217Z,61.16
2023-03-29T15:10:52.952Z,61.30
2023-03-29T15:15:59.437Z,62.07
2023-03-29T15:21:01.952Z,62.14
2023-03-29T15:26:09.674Z,61.97
2023-03-29T15:31:13.338Z,62.05
2023-03-29T15:36:15.541Z,62.43
2023-03-29T15:41:17.366Z,63.13
2023-03-29T15:46:19.033Z,63.87
2023-03-29T15:51:21.366Z,65.07
2023-03-29T15:56:23.278Z,65.91
2023-03-29T16:01:34.789Z,66.55
2023-03-29T16:06:36.718Z,67.45
2023-03-29T16:11:42.651Z,67.11
2023-03-29T16:16:44.730Z,68.12
2023-03-29T16:21:46.454Z,67.46
2023-03-29T16:26:48.555Z,67.46
2023-03-29T16:31:50.479Z,67.49
2023-03-29T16:36:53.098Z,67.04
2023-03-29T16:41:54.782Z,67.49
2023-03-29T16:46:58.328Z,67.89
2023-03-29T16:52:00.029Z,67.10
2023-03-29T16:57:01.702Z,68.44
2023-03-29T17:02:03.456Z,68.61
2023-03-29T17:07:05.112Z,68.98
2023-03-29T17:12:06.863Z,69.18
2023-03-29T17:17:08.840Z,69.35
2023-03-29T17:22:10.510Z,69.40
2023-03-29T17:27:12.142Z,69.88
2023-03-29T17:32:13.929Z,70.47
2023-03-29T17:37:15.830Z,70.98
2023-03-29T17:42:17.532Z,71.20
2023-03-29T17:47:19.228Z,71.30
2023-03-29T17:52:20.948Z,71.46
2023-03-29T17:57:22.778Z,71.66
2023-03-29T18:02:24.841Z,72.69
2023-03-29T18:07:26.742Z,72.71
2023-03-29T18:12:29.079Z,72.58
2023-03-29T18:17:31.544Z,73.03
2023-03-29T18:22:34.134Z,73.43
2023-03-29T18:27:36.786Z,73.38
2023-03-29T18:32:38.471Z,73.95
2023-03-29T18:37:40.363Z,73.91
2023-03-29T18:42:41.988Z,74.57
2023-03-29T18:47:44.025Z,74.37
2023-03-29T18:52:45.887Z,74.50
2023-03-29T18:57:47.538Z,74.15
2023-03-29T19:02:49.362Z,75.38
2023-03-29T19:07:51.175Z,75.20
2023-03-29T19:12:52.915Z,75.09
2023-03-29T19:17:54.697Z,74.67
2023-03-29T19:22:56.509Z,74.91
2023-03-29T19:27:58.819Z,75.06
2023-03-29T19:33:00.733Z,75.22
2023-03-29T19:38:02.529Z,75.35
2023-03-29T19:43:04.770Z,75.53
2023-03-29T19:48:07.159Z,75.57
2023-03-29T19:53:09.372Z,76.30
2023-03-29T19:58:11.067Z,76.79
2023-03-29T20:03:14.024Z,76.88
2023-03-29T20:08:16.130Z,77.05
2023-03-29T20:13:31.474Z,76.66
2023-03-29T20:18:39.837Z,76.70
2023-03-29T20:23:41.614Z,76.56
2023-03-29T20:28:43.421Z,75.99
2023-03-29T20:33:45.350Z,76.20
2023-03-29T20:38:47.001Z,76.37
2023-03-29T20:43:48.866Z,76.30
2023-03-29T20:48:53.537Z,76.37
2023-03-29T20:54:02.252Z,76.44
2023-03-29T20:59:05.834Z,76.19
2023-03-29T21:04:11.068Z,76.54
2023-03-29T21:09:13.672Z,76.58
2023-03-29T21:14:19.608Z,76.56
2023-03-29T21:19:21.777Z,76.71
2023-03-29T21:24:23.447Z,77.24
2023-03-29T21:29:25.486Z,76.83
2023-03-29T21:34:27.227Z,77.35
2023-03-29T21:39:29.236Z,76.83
2023-03-29T21:44:33.173Z,76.80
2023-03-29T21:49:36.331Z,77.20
2023-03-29T21:54:38.004Z,76.72
2023-03-29T21:59:39.689Z,77.48
2023-03-29T22:04:41.433Z,77.29
2023-03-29T22:09:43.125Z,77.89
2023-03-29T22:14:44.817Z,77.92
2023-03-29T22:19:47.724Z,77.35
2023-03-29T22:24:52.711Z,77.65
2023-03-29T22:29:54.379Z,77.93
2023-03-29T22:34:56.336Z,78.40
2023-03-29T22:39:57.999Z,77.96
2023-03-29T22:44:59.660Z,78.12
2023-03-29T22:50:01.725Z,78.26
2023-03-29T22:55:03.473Z,78.27
2023-03-29T23:00:09.188Z,78.75
2023-03-29T23:05:12.219Z,78.40
2023-03-29T23:10:13.949Z,78.34
2023-03-29T23:15:17.039Z,78.13
2023-03-29T23:20:21.461Z,78.35
2023-03-29T23:25:24.669Z,78.12
2023-03-29T23:30:26.849Z,78.52
2023-03-29T23:35:28.527Z,78.14
2023-03-29T23:40:30.228Z,77.81
2023-03-29T23:45:31.862Z,78.10
2023-03-29T23:50:33.502Z,78.30
2023-03-29T23:55:35.148Z,78.87
